Flugplatz Oberpfaffenhofen

Bericht für EDMO

vom 19.07. um 11:20 UTC

Wind 5 kt aus 280°

Sichtweite 10 km oder mehr

gute Sicht, keine Wolken < 5000 ft, keine CB, keine Wettererscheinungen (CAVOK)

Temperatur 24.0°C

Taupunkt 14.0°C

Luftfeuchtigkeit 54%

Luftdruck 1017 hPa

EDMO 191120Z 28005KT CAVOK 24/14 Q1017

Prognose für EDMO

vom 19.07. um 00:00 UTC

Zwischen 00:00 UTC und 00:00 UTC

Wind 7 kt aus 280°

Sichtweite 10 km oder mehr

keine signifikanten Wettererscheinungen

keine Wolken


Zwischen 00:00 UTC und 00:00 UTC zeitweise

Regenschauer

aufgelockert bewölkt in 4500 ft


Zwischen 00:00 und 00:00 UTC übergehend zu

variable Windrichtung mit 2 kt

Sichtweite 10 km oder mehr

keine signifikanten Wettererscheinungen

keine Wolken

TAF EDMO 191100Z 1912/1921 28007KT CAVOK TEMPO 1915/1918 SHRA SCT045CB BECMG 1917/1919 VRB02KT
Impressum